Terminal Aerodrome Forecast
Issued by NWS

Current Version | Previous Version | Text Only | Print | Product List | Glossary On
Versions: 1 2 3 4 5 6 7 8 9 10 11 12 13 14 15 16 17 18 19 20 21 22 23 24 25 26 27 28 29 30 31 32 33 34 35 36 37 38 39 40 41
000
FTUS42 KGSP 301700
TAFHKY
TAF
KHKY 301720Z 3018/0118 28003KT P6SM SKC
     FM302100 21003KT P6SM FEW040
     FM010900 00000KT 2SM BR FEW040
     FM011300 18003KT P6SM FEW040=

USA.gov is the U.S. government's official web portal to all federal, state and local government web resources and services.